Time;durP1;ratioP1;P1;durP2;ratioP2;P2;SDS_P1;SDS_P2;PMS_P1;PMS_P2;Temp;Humidity;BMP_temperature;BMP_pressure;BME280_temperature;BME280_humidity;BME280_pressure;Samples;Min_cycle;Max_cycle;Signal;HPM_P1;HPM_P2
2022/01/25 00:26:39;;;;;;;;;;;;;;;0.49;90.23;99713.23;1642487;84;26162;-83
2022/01/25 00:29:14;;;;;;;;;;;;;;;0.50;90.32;99711.05;1661455;84;24580;-83
2022/01/25 00:31:43;;;;;;;;;;;;;;;0.51;90.41;99706.75;1661684;85;20226;-83
2022/01/25 00:34:09;;;;;;;;;;;;;;;0.48;90.41;99710.66;1660679;84;25191;-83
2022/01/25 00:36:36;;;;;;;;;;;;;;;0.52;90.48;99709.75;1657999;84;22048;-83
2022/01/25 00:39:03;;;;;;;;;;;;;;;0.53;90.53;99712.75;1661356;84;26048;-85
2022/01/25 00:41:29;;;;;;;;;;;;;;;0.55;90.60;99705.42;1662540;84;24436;-85
2022/01/25 00:44:02;;;;;;;;;;;;;;;0.56;90.70;99701.98;1659895;85;20233;-85
2022/01/25 00:46:28;;;;;;;;;;;;;;;0.55;90.74;99706.70;1658062;86;25088;-85
2022/01/25 00:48:59;;;;;;;;;;;;;;;0.59;90.89;99701.97;1658330;86;22042;-84
2022/01/25 00:54:02;;;;;;;;;;;;;;;0.59;91.07;99704.98;1658003;86;24507;-85
2022/01/25 00:56:30;;;;;;;;;;;;;;;0.58;91.08;99697.68;1659376;85;20223;-84
2022/01/25 00:58:56;;;;;;;;;;;;;;;0.59;91.10;99697.25;1661537;86;25079;-84
2022/01/25 01:01:29;;;;;;;;;;;;;;;0.54;91.04;99693.44;1663466;86;22598;-84
2022/01/25 01:03:55;;;;;;;;;;;;;;;0.53;91.02;99697.30;1660981;86;26089;-84
2022/01/25 01:06:24;;;;;;;;;;;;;;;0.50;90.96;99697.31;1665168;86;24566;-83
2022/01/25 01:08:53;;;;;;;;;;;;;;;0.46;90.93;99693.07;1661943;86;20269;-84
2022/01/25 01:11:27;;;;;;;;;;;;;;;0.46;90.92;99688.77;1664003;86;25197;-84
2022/01/25 01:33:17;;;;;;;;;;;;;;;0.36;91.17;99657.11;1645292;86;24583;-83
2022/01/25 01:38:14;;;;;;;;;;;;;;;0.37;91.36;99650.25;1661077;86;25675;-84
2022/01/25 01:48:33;;;;;;;;;;;;;;;0.39;91.64;99643.34;1628746;87;20256;-83
2022/01/25 01:51:05;;;;;;;;;;;;;;;0.40;91.75;99638.62;1634659;87;25066;-83
2022/01/25 01:53:28;;;;;;;;;;;;;;;0.37;91.79;99640.81;1631492;87;22018;-83
2022/01/25 01:55:54;;;;;;;;;;;;;;;0.39;91.84;99640.34;1631335;87;26537;-83
2022/01/25 01:58:20;;;;;;;;;;;;;;;0.43;91.92;99645.48;1630107;87;20301;-84
2022/01/25 02:00:47;;;;;;;;;;;;;;;0.46;92.01;99644.14;1627778;87;20183;-83
2022/01/25 02:03:14;;;;;;;;;;;;;;;0.47;92.12;99641.56;1630934;87;25043;-84
2022/01/25 02:05:40;;;;;;;;;;;;;;;0.49;92.21;99643.70;1631018;87;22251;-83
2022/01/25 02:08:06;;;;;;;;;;;;;;;0.53;92.31;99643.22;1630782;87;26116;-84
2022/01/25 02:10:33;;;;;;;;;;;;;;;0.54;92.41;99643.22;1632381;87;24610;-83
2022/01/25 02:12:59;;;;;;;;;;;;;;;0.54;92.46;99637.20;1628803;87;21282;-83
2022/01/25 02:15:26;;;;;;;;;;;;;;;0.54;92.51;99634.63;1631309;87;24978;-83
2022/01/25 02:23:28;;;;;;;;;;;;;;;0.48;92.58;99636.84;1630496;87;24509;-84
2022/01/25 02:25:55;;;;;;;;;;;;;;;0.43;92.54;99631.31;1632943;87;20490;-84
2022/01/25 02:28:24;;;;;;;;;;;;;;;0.36;92.46;99618.50;1631363;87;24991;-84
2022/01/25 02:30:51;;;;;;;;;;;;;;;0.35;92.46;99614.64;1630454;87;22794;-84
2022/01/25 02:33:18;;;;;;;;;;;;;;;0.29;92.43;99609.12;1627887;87;26092;-84
2022/01/25 02:35:44;;;;;;;;;;;;;;;0.28;92.45;99608.69;1633853;87;24544;-84
2022/01/25 02:38:23;;;;;;;;;;;;;;;0.26;92.45;99606.59;1632280;87;20294;-83
2022/01/25 02:40:49;;;;;;;;;;;;;;;0.22;92.45;99603.60;1652533;84;25034;-84
2022/01/25 02:43:18;;;;;;;;;;;;;;;0.18;92.41;99605.80;1642208;86;21743;-84
2022/01/25 02:46:03;;;;;;;;;;;;;;;0.19;92.47;99607.50;1661697;86;26712;-84
2022/01/25 02:48:31;;;;;;;;;;;;;;;0.20;92.54;99606.64;1655107;84;24425;-84
2022/01/25 02:50:58;;;;;;;;;;;;;;;0.19;92.58;99601.50;1662130;84;20303;-84
2022/01/25 02:53:30;;;;;;;;;;;;;;;0.16;92.61;99593.83;1662638;85;25079;-84
2022/01/25 02:55:56;;;;;;;;;;;;;;;0.16;92.65;99595.97;1659684;86;22161;-83
2022/01/25 02:58:22;;;;;;;;;;;;;;;0.17;92.71;99595.50;1662418;86;26080;-84
2022/01/25 03:00:48;;;;;;;;;;;;;;;0.18;92.76;99595.93;1663485;86;24478;-84
2022/01/25 03:03:14;;;;;;;;;;;;;;;0.17;92.83;99579.63;1659481;86;20255;-83
2022/01/25 03:05:41;;;;;;;;;;;;;;;0.17;92.91;99586.06;1659597;86;25014;-84
2022/01/25 03:08:14;;;;;;;;;;;;;;;0.19;93.00;99581.77;1660905;86;21966;-84
2022/01/25 03:10:42;;;;;;;;;;;;;;;0.18;93.06;99577.48;1660931;84;25989;-83
2022/01/25 03:13:14;;;;;;;;;;;;;;;0.17;93.13;99578.77;1658461;86;24407;-83
2022/01/25 03:16:18;;;;;;;;;;;;;;;0.14;93.16;99580.11;1659979;84;20376;-83
2022/01/25 03:18:24;;;;;;;;;;;;;;;0.14;93.19;99579.67;1652526;86;25760;-83
2022/01/25 03:21:00;;;;;;;;;;;;;;;0.15;93.26;99586.96;1662916;84;22075;-83
2022/01/25 03:23:21;;;;;;;;;;;;;;;0.16;93.30;99586.10;1636826;86;27072;-83
2022/01/25 03:25:44;;;;;;;;;;;;;;;0.17;93.36;99581.34;1641385;85;24486;-83
2022/01/25 03:28:10;;;;;;;;;;;;;;;0.16;93.47;99571.52;1661368;86;20211;-83
2022/01/25 03:30:36;;;;;;;;;;;;;;;0.16;93.54;99568.94;1663531;86;24972;-84
2022/01/25 03:33:02;;;;;;;;;;;;;;;0.17;93.61;99566.76;1661787;86;21993;-83
2022/01/25 03:35:28;;;;;;;;;;;;;;;0.19;93.67;99562.89;1660245;84;25946;-83
2022/01/25 03:37:54;;;;;;;;;;;;;;;0.18;93.75;99562.47;1663306;85;24489;-84
2022/01/25 03:40:21;;;;;;;;;;;;;;;0.20;93.82;99559.02;1644960;86;20231;-83
2022/01/25 03:42:51;;;;;;;;;;;;;;;0.18;93.89;99563.33;1663069;86;25246;-84
2022/01/25 03:45:20;;;;;;;;;;;;;;;0.20;94.00;99568.03;1662556;86;21903;-83
2022/01/25 03:50:26;;;;;;;;;;;;;;;0.27;94.28;99572.23;1664621;86;24466;-83
2022/01/25 03:52:53;;;;;;;;;;;;;;;0.31;94.44;99573.07;1661268;86;20297;-84
2022/01/25 03:55:19;;;;;;;;;;;;;;;0.34;94.61;99581.61;1660438;86;24952;-84
2022/01/25 03:57:45;;;;;;;;;;;;;;;0.36;94.75;99579.02;1665158;84;21989;-84
2022/01/25 04:00:12;;;;;;;;;;;;;;;0.37;94.88;99577.73;1659838;86;26142;-84
2022/01/25 04:02:47;;;;;;;;;;;;;;;0.36;95.01;99569.58;1663299;86;24167;-84
2022/01/25 04:05:20;;;;;;;;;;;;;;;0.36;95.14;99566.15;1641217;85;20197;-84
2022/01/25 04:07:48;;;;;;;;;;;;;;;0.35;95.25;99570.44;1657391;85;25063;-84
2022/01/25 04:10:10;;;;;;;;;;;;;;;0.31;95.37;99568.78;1638230;85;22102;-84
2022/01/25 04:12:36;;;;;;;;;;;;;;;0.30;95.53;99567.06;1660683;84;20974;-84
2022/01/25 04:15:03;;;;;;;;;;;;;;;0.26;95.66;99565.41;1659695;86;24575;-84
2022/01/25 04:17:29;;;;;;;;;;;;;;;0.26;95.78;99564.55;1659905;86;20469;-84
2022/01/25 04:25:20;;;;;;;;;;;;;;;0.16;96.12;99560.37;1657067;84;26044;-84
2022/01/25 04:27:46;;;;;;;;;;;;;;;0.07;96.23;99557.43;1663447;86;24453;-83
2022/01/25 04:30:12;;;;;;;;;;;;;;;0.07;96.32;99563.86;1664480;84;20239;-84
2022/01/25 04:32:48;;;;;;;;;;;;;;;0.05;96.45;99555.33;1641088;86;25053;-83
2022/01/25 04:49:03;;;;;;;;;;;;;;;0.01;97.55;99562.63;1657080;86;22638;-84
2022/01/25 04:51:49;;;;;;;;;;;;;;;-0.03;97.70;99570.83;1659484;86;26685;-84
2022/01/25 04:54:38;;;;;;;;;;;;;;;-0.03;97.88;99562.25;1656927;86;24521;-84
2022/01/25 05:02:18;;;;;;;;;;;;;;;-0.06;98.50;99552.86;1657934;86;22176;-83
2022/01/25 05:04:46;;;;;;;;;;;;;;;-0.03;98.70;99541.67;1660976;86;26750;-84
2022/01/25 05:07:38;;;;;;;;;;;;;;;-0.05;98.90;99545.53;1669873;84;24563;-83
2022/01/25 05:09:37;;;;;;;;;;;;;;;-0.05;99.09;99537.81;1666083;84;20208;-84
2022/01/25 05:12:18;;;;;;;;;;;;;;;-0.07;99.23;99545.14;1671139;85;24654;-83
2022/01/25 05:14:57;;;;;;;;;;;;;;;-0.10;99.39;99540.86;1666093;85;22122;-83
2022/01/25 05:17:18;;;;;;;;;;;;;;;-0.09;99.58;99545.15;1667007;85;26701;-83
2022/01/25 05:22:27;;;;;;;;;;;;;;;-0.06;99.97;99549.43;1659406;86;20248;-83
2022/01/25 05:24:50;;;;;;;;;;;;;;;-0.09;100.00;99546.86;1658130;85;26264;-83
2022/01/25 05:27:18;;;;;;;;;;;;;;;-0.07;100.00;99542.14;1658661;85;22000;-83
2022/01/25 05:29:48;;;;;;;;;;;;;;;-0.02;100.00;99534.38;1659966;86;26088;-83
2022/01/25 05:32:14;;;;;;;;;;;;;;;-0.01;100.00;99533.52;1659585;86;24443;-83
2022/01/25 05:34:40;;;;;;;;;;;;;;;-0.04;100.00;99527.09;1658515;86;20298;-83
2022/01/25 05:37:07;;;;;;;;;;;;;;;-0.06;100.00;99515.98;1659708;86;25035;-83
2022/01/25 05:39:36;;;;;;;;;;;;;;;-0.10;100.00;99514.28;1659680;86;22059;-83
2022/01/25 05:42:24;;;;;;;;;;;;;;;-0.11;100.00;99515.17;1634654;86;26072;-82
2022/01/25 05:47:14;;;;;;;;;;;;;;;-0.13;100.00;99521.61;1585074;87;20233;-84
2022/01/25 05:49:39;;;;;;;;;;;;;;;-0.16;100.00;99511.77;1652960;86;25001;-84
2022/01/25 05:52:06;;;;;;;;;;;;;;;-0.18;100.00;99518.67;1651730;85;22784;-84
2022/01/25 05:54:32;;;;;;;;;;;;;;;-0.19;100.00;99515.23;1651630;85;26130;-83
2022/01/25 05:57:01;;;;;;;;;;;;;;;-0.20;100.00;99512.67;1631917;87;25067;-82
2022/01/25 05:59:27;;;;;;;;;;;;;;;-0.20;100.00;99515.25;1633464;87;20174;-83
2022/01/25 06:01:53;;;;;;;;;;;;;;;-0.21;100.00;99516.10;1637887;87;24896;-83
2022/01/25 06:04:19;;;;;;;;;;;;;;;-0.18;100.00;99515.66;1635554;87;22031;-84
2022/01/25 06:06:45;;;;;;;;;;;;;;;-0.21;100.00;99510.95;1634098;87;26048;-83
2022/01/25 06:09:11;;;;;;;;;;;;;;;-0.24;100.00;99502.00;1632892;87;24496;-83
2022/01/25 06:11:37;;;;;;;;;;;;;;;-0.22;100.00;99493.84;1636227;87;20232;-83
2022/01/25 06:14:12;;;;;;;;;;;;;;;-0.21;100.00;99489.09;1635001;87;25673;-83
2022/01/25 06:16:44;;;;;;;;;;;;;;;-0.22;100.00;99484.84;1635064;87;22102;-83
2022/01/25 06:19:10;;;;;;;;;;;;;;;-0.22;100.00;99491.28;1635632;87;26027;-84
2022/01/25 06:21:36;;;;;;;;;;;;;;;-0.21;100.00;99480.09;1631946;87;24378;-84
2022/01/25 06:24:04;;;;;;;;;;;;;;;-0.18;100.00;99488.66;1634830;87;20485;-83
2022/01/25 06:26:30;;;;;;;;;;;;;;;-0.20;100.00;99479.23;1633331;87;24992;-83
2022/01/25 06:28:56;;;;;;;;;;;;;;;-0.25;100.00;99475.86;1634647;86;21936;-82
2022/01/25 06:31:22;;;;;;;;;;;;;;;-0.26;100.00;99471.58;1635863;87;26152;-83
2022/01/25 06:33:48;;;;;;;;;;;;;;;-0.28;100.00;99473.33;1633746;87;24481;-83
2022/01/25 06:36:14;;;;;;;;;;;;;;;-0.27;100.00;99476.33;1631030;87;20334;-83
2022/01/25 06:38:40;;;;;;;;;;;;;;;-0.26;100.00;99484.00;1632882;87;20281;-83
2022/01/25 06:41:09;;;;;;;;;;;;;;;-0.25;100.00;99490.86;1627718;84;22084;-83
2022/01/25 06:43:35;;;;;;;;;;;;;;;-0.20;100.00;99493.38;1665838;85;26030;-83
2022/01/25 06:46:03;;;;;;;;;;;;;;;-0.17;100.00;99498.52;1667793;83;24617;-83
2022/01/25 06:48:30;;;;;;;;;;;;;;;-0.17;100.00;99494.66;1670354;83;20497;-83
2022/01/25 06:50:58;;;;;;;;;;;;;;;-0.18;100.00;99489.08;1668638;85;24979;-83
2022/01/25 06:53:25;;;;;;;;;;;;;;;-0.15;100.00;99496.33;1668090;85;22607;-83
2022/01/25 06:55:51;;;;;;;;;;;;;;;-0.11;100.00;99494.59;1665290;85;25960;-83
2022/01/25 06:58:17;;;;;;;;;;;;;;;-0.12;100.00;99495.03;1665339;84;24495;-83
2022/01/25 07:00:47;;;;;;;;;;;;;;;-0.12;100.00;99502.75;1662269;85;20341;-82
2022/01/25 07:03:13;;;;;;;;;;;;;;;-0.08;100.00;99482.55;1669741;85;25007;-83
2022/01/25 07:05:39;;;;;;;;;;;;;;;-0.02;100.00;99488.91;1668595;85;22078;-84
2022/01/25 07:08:06;;;;;;;;;;;;;;;0.03;100.00;99488.86;1665879;85;26026;-83
2022/01/25 07:10:32;;;;;;;;;;;;;;;0.03;100.00;99488.86;1669565;85;24267;-83
2022/01/25 07:12:58;;;;;;;;;;;;;;;0.04;100.00;99486.70;1663855;85;20254;-83
2022/01/25 07:15:24;;;;;;;;;;;;;;;0.05;100.00;99479.84;1672680;85;25024;-83
2022/01/25 07:17:50;;;;;;;;;;;;;;;0.08;100.00;99488.38;1665482;85;22069;-83
2022/01/25 07:20:16;;;;;;;;;;;;;;;0.07;100.00;99482.80;1667132;84;26665;-83
2022/01/25 07:22:43;;;;;;;;;;;;;;;0.06;100.00;99482.81;1667978;83;20345;-84
2022/01/25 07:25:11;;;;;;;;;;;;;;;0.04;100.00;99486.70;1665091;85;20321;-84
2022/01/25 07:27:37;;;;;;;;;;;;;;;0.06;100.00;99489.25;1667146;85;25057;-83
2022/01/25 07:30:06;;;;;;;;;;;;;;;0.08;100.00;99483.66;1662432;83;22039;-83
2022/01/25 07:32:32;;;;;;;;;;;;;;;0.02;100.00;99474.72;1668197;85;26012;-83
2022/01/25 07:34:58;;;;;;;;;;;;;;;-0.02;100.00;99476.05;1671181;85;24467;-83
2022/01/25 07:37:24;;;;;;;;;;;;;;;-0.02;100.00;99477.77;1667466;85;20492;-82
2022/01/25 07:39:50;;;;;;;;;;;;;;;-0.02;100.00;99478.62;1670503;84;25007;-82
2022/01/25 07:42:17;;;;;;;;;;;;;;;-0.01;100.00;99482.05;1668967;83;22062;-83
2022/01/25 07:44:44;;;;;;;;;;;;;;;0.02;100.00;99483.29;1660270;86;26034;-83
2022/01/25 07:47:11;;;;;;;;;;;;;;;0.05;100.00;99469.55;1662384;86;24374;-83
2022/01/25 07:49:37;;;;;;;;;;;;;;;0.06;100.00;99477.23;1660699;86;20225;-83
2022/01/25 07:52:04;;;;;;;;;;;;;;;0.06;100.00;99473.80;1660063;85;24963;-83
2022/01/25 07:54:31;;;;;;;;;;;;;;;0.05;100.00;99484.99;1662068;86;21942;-83
2022/01/25 07:57:07;;;;;;;;;;;;;;;0.10;100.00;99480.22;1664002;86;26693;-83
2022/01/25 07:59:31;;;;;;;;;;;;;;;0.14;100.00;99476.73;1661982;85;24463;-83
2022/01/25 08:01:57;;;;;;;;;;;;;;;0.14;100.00;99472.02;1661659;86;20165;-83
2022/01/25 08:04:23;;;;;;;;;;;;;;;0.17;100.00;99463.81;1666229;86;25049;-83
2022/01/25 08:06:49;;;;;;;;;;;;;;;0.22;100.00;99462.50;1667738;86;22035;-83
2022/01/25 08:09:15;;;;;;;;;;;;;;;0.22;100.00;99465.89;1663977;86;26023;-83
2022/01/25 08:11:43;;;;;;;;;;;;;;;0.24;100.00;99471.03;1662891;85;24420;-83
2022/01/25 08:14:17;;;;;;;;;;;;;;;0.29;100.00;99458.52;1661447;86;20493;-83
2022/01/25 08:16:49;;;;;;;;;;;;;;;0.31;100.00;99449.50;1661586;85;24995;-83
2022/01/25 08:19:17;;;;;;;;;;;;;;;0.35;100.00;99455.88;1665313;86;21985;-83
2022/01/25 08:21:43;;;;;;;;;;;;;;;0.40;100.00;99456.66;1665378;85;25868;-83
2022/01/25 08:24:10;;;;;;;;;;;;;;;0.46;100.00;99451.02;1666387;85;24562;-83
2022/01/25 08:26:36;;;;;;;;;;;;;;;0.48;100.00;99457.87;1663255;86;20217;-83
2022/01/25 08:29:03;;;;;;;;;;;;;;;0.51;100.00;99452.66;1664720;86;25220;-83
2022/01/25 08:31:29;;;;;;;;;;;;;;;0.59;100.00;99461.59;1660594;86;22031;-83
2022/01/25 08:34:01;;;;;;;;;;;;;;;0.60;100.00;99447.84;1661575;85;26056;-83
2022/01/25 08:36:27;;;;;;;;;;;;;;;0.61;100.00;99449.52;1662919;86;24417;-83
2022/01/25 08:38:55;;;;;;;;;;;;;;;0.60;100.00;99452.53;1651283;86;20252;-83
2022/01/25 08:41:21;;;;;;;;;;;;;;;0.66;100.00;99450.31;1666708;85;24979;-83
2022/01/25 08:43:48;;;;;;;;;;;;;;;0.70;100.00;99445.55;1669528;85;22930;-83
2022/01/25 08:46:15;;;;;;;;;;;;;;;0.75;100.00;99446.34;1664481;85;27594;-82
2022/01/25 08:48:42;;;;;;;;;;;;;;;0.82;100.00;99446.20;1666027;85;24411;-83
2022/01/25 08:51:08;;;;;;;;;;;;;;;0.87;100.00;99447.89;1669593;85;20240;-83
2022/01/25 08:53:37;;;;;;;;;;;;;;;0.87;100.00;99450.03;1668017;85;24945;-82
2022/01/25 08:56:03;;;;;;;;;;;;;;;0.87;100.00;99437.14;1670131;84;21983;-83
2022/01/25 08:58:29;;;;;;;;;;;;;;;0.88;100.00;99446.98;1670985;85;26019;-83
2022/01/25 09:00:55;;;;;;;;;;;;;;;0.90;100.00;99448.69;1668333;85;24382;-83
2022/01/25 09:03:21;;;;;;;;;;;;;;;0.94;100.00;99446.47;1667052;85;20309;-83
2022/01/25 09:05:54;;;;;;;;;;;;;;;0.99;100.00;99433.07;1668668;85;25022;-83
2022/01/25 09:08:26;;;;;;;;;;;;;;;1.02;100.00;99435.62;1670773;85;22084;-83
2022/01/25 09:10:57;;;;;;;;;;;;;;;1.05;100.00;99446.30;1669731;85;26109;-83
2022/01/25 09:13:19;;;;;;;;;;;;;;;1.12;100.00;99448.77;1668035;85;25212;-83
2022/01/25 09:15:46;;;;;;;;;;;;;;;1.20;100.00;99447.38;1670716;85;20225;-83
2022/01/25 09:18:12;;;;;;;;;;;;;;;1.21;100.00;99449.91;1669873;85;25039;-83
2022/01/25 09:20:40;;;;;;;;;;;;;;;1.22;100.00;99449.03;1654655;85;20509;-83
2022/01/25 09:23:06;;;;;;;;;;;;;;;1.22;100.00;99459.34;1669930;85;26115;-83
2022/01/25 09:25:32;;;;;;;;;;;;;;;1.25;100.00;99455.41;1669406;85;25808;-83
2022/01/25 09:27:59;;;;;;;;;;;;;;;1.30;100.00;99450.64;1670000;84;20264;-83
2022/01/25 09:30:27;;;;;;;;;;;;;;;1.31;100.00;99448.02;1669267;85;25684;-83
2022/01/25 09:32:53;;;;;;;;;;;;;;;1.31;100.00;99450.59;1669668;85;21923;-83
2022/01/25 09:35:22;;;;;;;;;;;;;;;1.32;100.00;99448.44;1670960;85;26772;-83
2022/01/25 09:37:49;;;;;;;;;;;;;;;1.33;100.00;99437.69;1668941;85;24597;-83
2022/01/25 09:40:15;;;;;;;;;;;;;;;1.36;100.00;99442.81;1669357;85;20433;-83
2022/01/25 09:42:41;;;;;;;;;;;;;;;1.40;100.00;99444.02;1670859;85;25048;-83
2022/01/25 09:45:07;;;;;;;;;;;;;;;1.45;100.00;99451.67;1669783;85;22112;-83
2022/01/25 09:47:33;;;;;;;;;;;;;;;1.50;100.00;99447.28;1665552;84;25939;-82
2022/01/25 09:49:59;;;;;;;;;;;;;;;1.54;100.00;99438.61;1669395;84;20810;-83
2022/01/25 09:52:27;;;;;;;;;;;;;;;1.54;100.00;99438.61;1668648;84;20209;-82
2022/01/25 09:54:54;;;;;;;;;;;;;;;1.54;100.00;99438.17;1670668;84;25004;-83
2022/01/25 09:57:21;;;;;;;;;;;;;;;1.54;100.00;99427.86;1669734;84;21958;-83
2022/01/25 09:59:50;;;;;;;;;;;;;;;1.56;100.00;99431.27;1664465;84;26658;-83
2022/01/25 10:02:46;;;;;;;;;;;;;;;1.60;100.00;99430.33;1665328;84;25821;-83
2022/01/25 10:05:16;;;;;;;;;;;;;;;1.62;100.00;99431.16;1666798;85;20247;-83
2022/01/25 10:07:43;;;;;;;;;;;;;;;1.64;100.00;99434.55;1666373;85;25718;-82
2022/01/25 10:10:12;;;;;;;;;;;;;;;1.68;100.00;99437.94;1670811;85;22714;-83
2022/01/25 10:12:38;;;;;;;;;;;;;;;1.76;100.00;99437.78;1667521;84;25960;-83
2022/01/25 10:15:08;;;;;;;;;;;;;;;1.84;100.00;99430.77;1667520;84;20918;-83
2022/01/25 10:17:34;;;;;;;;;;;;;;;1.90;100.00;99425.49;1672081;85;20156;-82
2022/01/25 10:20:01;;;;;;;;;;;;;;;1.95;100.00;99424.52;1670898;85;24996;-83
2022/01/25 10:22:27;;;;;;;;;;;;;;;1.97;100.00;99425.33;1671360;85;22014;-83
2022/01/25 10:24:53;;;;;;;;;;;;;;;2.01;100.00;99430.01;1672535;85;26079;-82
2022/01/25 10:30:08;;;;;;;;;;;;;;;1.97;100.00;99403.38;1652681;85;20268;-83
2022/01/25 10:32:35;;;;;;;;;;;;;;;2.10;100.00;99416.47;1670225;84;25023;-83
2022/01/25 10:35:03;;;;;;;;;;;;;;;2.07;100.00;99418.27;1668831;84;22690;-83
2022/01/25 10:37:29;;;;;;;;;;;;;;;2.03;100.00;99417.46;1667016;85;26174;-83
2022/01/25 10:39:57;;;;;;;;;;;;;;;2.01;100.00;99414.08;1672264;85;20294;-83
2022/01/25 10:42:24;;;;;;;;;;;;;;;1.99;100.00;99408.09;1667765;85;20436;-83
2022/01/25 10:44:59;;;;;;;;;;;;;;;1.97;100.00;99403.38;1669797;85;24983;-83
2022/01/25 10:47:39;;;;;;;;;;;;;;;1.97;100.00;99402.09;1670933;85;22082;-83
2022/01/25 10:50:16;;;;;;;;;;;;;;;1.97;100.00;99385.75;1668665;85;26097;-83
2022/01/25 10:52:54;;;;;;;;;;;;;;;1.96;100.00;99386.22;1670827;85;24730;-84
2022/01/25 10:55:17;;;;;;;;;;;;;;;1.95;100.00;99383.23;1668849;85;20249;-84
2022/01/25 10:57:45;;;;;;;;;;;;;;;1.98;100.00;99379.72;1672269;85;20290;-83
2022/01/25 11:00:14;;;;;;;;;;;;;;;1.97;100.00;99380.59;1671689;85;22197;-83
2022/01/25 11:02:54;;;;;;;;;;;;;;;1.99;100.00;99374.53;1670468;85;26544;-83
2022/01/25 11:05:21;;;;;;;;;;;;;;;1.99;100.00;99369.37;1668484;85;24668;-83
2022/01/25 11:07:47;;;;;;;;;;;;;;;1.98;100.00;99371.53;1672070;85;20221;-83
2022/01/25 11:10:15;;;;;;;;;;;;;;;1.97;100.00;99372.84;1669643;85;25020;-83
2022/01/25 11:12:58;;;;;;;;;;;;;;;1.93;100.00;99361.75;1671651;85;21982;-83
2022/01/25 11:15:13;;;;;;;;;;;;;;;1.93;100.00;99359.16;1667208;85;26994;-83
2022/01/25 11:17:42;;;;;;;;;;;;;;;1.94;100.00;99363.45;1667658;85;24698;-83
2022/01/25 11:20:14;;;;;;;;;;;;;;;1.95;100.00;99363.87;1671190;85;20172;-83
2022/01/25 11:22:42;;;;;;;;;;;;;;;1.96;100.00;99364.28;1672448;85;25635;-83
2022/01/25 11:25:11;;;;;;;;;;;;;;;1.94;100.00;99357.44;1671480;85;20145;-83
2022/01/25 11:27:39;;;;;;;;;;;;;;;1.92;100.00;99355.31;1668115;85;26154;-83
2022/01/25 11:30:06;;;;;;;;;;;;;;;1.92;100.00;99354.88;1670085;85;25216;-83
2022/01/25 11:32:34;;;;;;;;;;;;;;;1.94;100.00;99350.98;1671509;85;20328;-83
2022/01/25 11:35:02;;;;;;;;;;;;;;;1.98;100.00;99347.02;1672126;85;25139;-83
2022/01/25 11:37:37;;;;;;;;;;;;;;;2.01;100.00;99340.52;1669445;85;22586;-83
2022/01/25 11:40:03;;;;;;;;;;;;;;;2.03;100.00;99340.02;1671543;85;26698;-83
2022/01/25 11:42:36;;;;;;;;;;;;;;;2.06;100.00;99342.55;1671694;84;25059;-84
2022/01/25 11:44:58;;;;;;;;;;;;;;;2.06;100.00;99337.83;1655073;84;20228;-83
2022/01/25 11:47:34;;;;;;;;;;;;;;;2.03;100.00;99340.02;1669091;85;26019;-83
2022/01/25 11:50:02;;;;;;;;;;;;;;;2.01;100.00;99332.77;1665366;84;22696;-83
2022/01/25 11:52:29;;;;;;;;;;;;;;;2.01;100.00;99334.06;1660955;85;26204;-83
2022/01/25 11:55:14;;;;;;;;;;;;;;;1.99;100.00;99330.65;1668644;85;24448;-83
2022/01/25 11:57:51;;;;;;;;;;;;;;;2.01;100.00;99321.16;1666376;85;20234;-82
2022/01/25 12:00:19;;;;;;;;;;;;;;;2.04;100.00;99319.78;1672671;85;25087;-83
2022/01/25 12:02:46;;;;;;;;;;;;;;;2.05;100.00;99318.05;1669824;85;21584;-83
2022/01/25 12:05:15;;;;;;;;;;;;;;;2.06;100.00;99315.45;1670310;84;26634;-83
2022/01/25 12:08:01;;;;;;;;;;;;;;;2.10;100.00;99315.78;1668120;85;25196;-83
2022/01/25 12:10:36;;;;;;;;;;;;;;;2.08;100.00;99308.94;1667687;85;20393;-83
2022/01/25 12:13:20;;;;;;;;;;;;;;;2.12;100.00;99311.88;1669157;84;24971;-83
2022/01/25 12:15:48;;;;;;;;;;;;;;;2.16;100.00;99313.51;1670373;85;21958;-83
2022/01/25 12:18:33;;;;;;;;;;;;;;;2.16;100.00;99304.91;1669944;84;26758;-83
2022/01/25 12:20:59;;;;;;;;;;;;;;;2.16;100.00;99311.36;1667662;85;24453;-83
2022/01/25 12:23:27;;;;;;;;;;;;;;;2.16;100.00;99305.77;1671316;85;20227;-83
2022/01/25 12:25:56;;;;;;;;;;;;;;;2.20;100.00;99311.70;1669601;84;25040;-83
2022/01/25 12:28:27;;;;;;;;;;;;;;;2.22;100.00;99308.21;1668785;85;22618;-82
2022/01/25 12:30:52;;;;;;;;;;;;;;;2.25;100.00;99308.13;1666801;85;26287;-83
2022/01/25 12:33:20;;;;;;;;;;;;;;;2.28;100.00;99305.49;1666679;85;24382;-83
2022/01/25 12:35:52;;;;;;;;;;;;;;;2.36;100.00;99310.47;1666603;85;20229;-83
2022/01/25 12:38:36;;;;;;;;;;;;;;;2.39;100.00;99311.70;1672455;85;24949;-83
2022/01/25 12:41:16;;;;;;;;;;;;;;;2.41;100.00;99315.94;1669037;84;21961;-82
2022/01/25 12:43:50;;;;;;;;;;;;;;;2.40;100.00;99321.16;1651412;85;26099;-83
2022/01/25 12:46:18;;;;;;;;;;;;;;;2.42;100.00;99316.34;1621135;87;25072;-83
2022/01/25 12:48:58;;;;;;;;;;;;;;;2.44;100.00;99309.86;1633187;87;20219;-83
2022/01/25 12:51:26;;;;;;;;;;;;;;;2.44;100.00;99310.72;1636550;87;25045;-83
2022/01/25 12:53:54;;;;;;;;;;;;;;;2.44;100.00;99326.66;1635320;87;22060;-83
2022/01/25 12:56:21;;;;;;;;;;;;;;;2.41;100.00;99321.10;1637254;87;26009;-83
2022/01/25 12:58:54;;;;;;;;;;;;;;;2.41;100.00;99316.38;1633721;87;20498;-82
2022/01/25 13:01:21;;;;;;;;;;;;;;;2.41;100.00;99313.79;1634312;87;20235;-83
2022/01/25 13:03:52;;;;;;;;;;;;;;;2.44;100.00;99318.91;1636572;87;24962;-82
2022/01/25 13:06:21;;;;;;;;;;;;;;;2.41;100.00;99320.25;1635230;87;22583;-83
2022/01/25 13:08:57;;;;;;;;;;;;;;;2.39;100.00;99314.28;1630733;87;26220;-82
2022/01/25 13:11:28;;;;;;;;;;;;;;;2.38;100.00;99320.33;1632643;86;24543;-82
2022/01/25 13:14:01;;;;;;;;;;;;;;;2.39;100.00;99316.88;1632707;87;20228;-82
2022/01/25 13:16:39;;;;;;;;;;;;;;;2.37;100.00;99318.19;1637047;86;25622;-83
2022/01/25 13:19:08;;;;;;;;;;;;;;;2.39;100.00;99308.69;1632710;87;22703;-82
2022/01/25 13:21:39;;;;;;;;;;;;;;;2.44;100.00;99306.84;1631824;87;26017;-82
2022/01/25 13:24:09;;;;;;;;;;;;;;;2.50;100.00;99301.97;1633989;87;25353;-83
2022/01/25 13:26:39;;;;;;;;;;;;;;;2.50;100.00;99299.39;1632404;87;20533;-82
2022/01/25 13:30:38;;;;;;;;;;;;;;;2.49;100.00;99306.29;1636989;86;25855;-83
2022/01/25 13:31:33;;;;;;;;;;;;;;;2.46;100.00;99308.08;1649964;85;22067;-82
2022/01/25 13:34:01;;;;;;;;;;;;;;;2.45;100.00;99305.11;1651045;85;26174;-82
2022/01/25 13:36:31;;;;;;;;;;;;;;;2.44;100.00;99299.09;1648710;87;24440;-82
2022/01/25 13:38:58;;;;;;;;;;;;;;;2.43;100.00;99301.27;1649916;86;20328;-82
2022/01/25 13:41:29;;;;;;;;;;;;;;;2.46;100.00;99297.74;1649075;87;25804;-83
2022/01/25 13:46:32;;;;;;;;;;;;;;;2.49;100.00;99298.98;1662978;85;26087;-83
2022/01/25 13:49:04;;;;;;;;;;;;;;;2.47;100.00;99303.32;1659295;84;24543;-82
2022/01/25 13:51:32;;;;;;;;;;;;;;;2.46;100.00;99314.53;1664688;84;20327;-83
2022/01/25 13:53:59;;;;;;;;;;;;;;;2.45;100.00;99322.75;1665483;84;25050;-83
2022/01/25 13:56:27;;;;;;;;;;;;;;;2.44;100.00;99315.03;1665007;85;21934;-82
2022/01/25 13:58:53;;;;;;;;;;;;;;;2.40;100.00;99312.94;1668353;84;26079;-83
2022/01/25 14:01:20;;;;;;;;;;;;;;;2.39;100.00;99316.43;1677585;84;24593;-83
2022/01/25 14:04:00;;;;;;;;;;;;;;;2.38;100.00;99310.00;1665970;85;20443;-83
2022/01/25 14:06:31;;;;;;;;;;;;;;;2.35;100.00;99309.61;1665066;85;24853;-83
2022/01/25 14:09:02;;;;;;;;;;;;;;;2.36;100.00;99315.20;1654335;85;22772;-83
2022/01/25 14:11:48;;;;;;;;;;;;;;;2.31;100.00;99307.99;1661453;85;26011;-83
2022/01/25 14:22:45;;;;;;;;;;;;;;;2.26;100.00;99310.27;1651372;85;22016;-83
2022/01/25 14:24:56;;;;;;;;;;;;;;;2.21;100.00;99314.69;1664527;85;26902;-83
2022/01/25 14:27:27;;;;;;;;;;;;;;;2.19;100.00;99312.58;1646396;85;22922;-82
2022/01/25 14:29:53;;;;;;;;;;;;;;;2.20;100.00;99310.41;1656438;84;20315;-83
2022/01/25 14:32:33;;;;;;;;;;;;;;;2.18;100.00;99309.61;1663460;85;25723;-83
2022/01/25 14:35:01;;;;;;;;;;;;;;;2.16;100.00;99313.95;1664233;85;22954;-83
2022/01/25 14:37:28;;;;;;;;;;;;;;;2.09;100.00;99314.08;1671833;85;25996;-84
2022/01/25 14:39:55;;;;;;;;;;;;;;;2.06;100.00;99313.30;1668442;84;24489;-84
2022/01/25 14:42:21;;;;;;;;;;;;;;;2.03;100.00;99309.48;1665556;84;20247;-83
2022/01/25 14:44:47;;;;;;;;;;;;;;;1.99;100.00;99319.03;1666606;84;25063;-84